Time;durP1;ratioP1;P1;durP2;ratioP2;P2;SDS_P1;SDS_P2;PMS_P1;PMS_P2;Temp;Humidity;BMP_temperature;BMP_pressure;BME280_temperature;BME280_humidity;BME280_pressure;Samples;Min_cycle;Max_cycle;Signal;HPM_P1;HPM_P2
2022/11/10 00:01:53;;;;;;;59.17;28.65;;;;;;;9.91;78.39;100646.44;5099168;28;20301;-69
2022/11/10 00:04:19;;;;;;;52.30;26.42;;;;;;;9.77;74.67;100624.81;5095859;28;20206;-68
2022/11/10 00:06:48;;;;;;;52.22;27.30;;;;;;;9.69;75.17;100646.66;5106640;28;20040;-68
2022/11/10 00:09:14;;;;;;;55.38;27.65;;;;;;;9.63;76.31;100641.91;5105367;28;20231;-68
2022/11/10 00:11:40;;;;;;;57.08;28.90;;;;;;;9.64;76.94;100642.75;5106594;28;20047;-67
2022/11/10 00:17:05;;;;;;;59.05;29.60;;;;;;;9.73;77.49;100650.69;5106066;28;20031;-68
2022/11/10 00:19:31;;;;;;;54.67;27.80;;;;;;;9.73;74.63;100649.88;5107552;28;20023;-68
2022/11/10 00:21:57;;;;;;;67.60;29.60;;;;;;;9.34;75.24;100648.84;5103695;28;20031;-68
2022/11/10 00:24:22;;;;;;;63.70;30.58;;;;;;;8.83;75.35;100647.03;5104274;28;20032;-68
2022/11/10 00:26:49;;;;;;;48.88;24.80;;;;;;;8.75;80.03;100642.41;5104094;28;20261;-68
2022/11/10 00:29:14;;;;;;;54.83;28.52;;;;;;;8.56;80.18;100642.25;5105491;28;20035;-68
2022/11/10 00:31:40;;;;;;;57.60;28.52;;;;;;;8.64;81.44;100635.38;5104778;28;20044;-68
2022/11/10 00:34:06;;;;;;;69.05;33.38;;;;;;;8.80;81.06;100631.44;5104518;28;20032;-68
2022/11/10 00:36:33;;;;;;;64.97;31.08;;;;;;;8.84;80.05;100636.34;5088922;28;20205;-68
2022/11/10 00:38:59;;;;;;;59.53;30.55;;;;;;;8.92;80.16;100622.47;5106193;28;20032;-68
2022/11/10 00:41:24;;;;;;;59.67;29.90;;;;;;;9.05;78.62;100625.75;5103460;28;20038;-68
2022/11/10 00:43:50;;;;;;;63.25;31.02;;;;;;;9.13;78.88;100628.59;5103231;28;20236;-68
2022/11/10 00:46:15;;;;;;;53.08;28.20;;;;;;;9.17;77.37;100619.44;5102919;28;20044;-68
2022/11/10 00:48:41;;;;;;;58.88;29.75;;;;;;;9.13;79.28;100614.53;5103076;28;20036;-68
2022/11/10 00:51:13;;;;;;;56.08;27.42;;;;;;;9.13;77.75;100618.00;5103988;28;20089;-68
2022/11/10 00:53:39;;;;;;;60.67;29.17;;;;;;;9.24;78.28;100622.38;5106398;28;20229;-67
2022/11/10 00:56:04;;;;;;;55.85;29.33;;;;;;;9.26;78.72;100620.44;5104950;28;20284;-68
2022/11/10 00:58:30;;;;;;;57.78;29.13;;;;;;;9.22;78.78;100616.38;5103228;28;20027;-68
2022/11/10 01:01:03;;;;;;;58.38;29.08;;;;;;;9.17;77.84;100616.78;5105456;28;20102;-68
2022/11/10 01:03:28;;;;;;;55.15;27.70;;;;;;;9.15;76.08;100616.06;5103057;28;20046;-68
2022/11/10 01:05:54;;;;;;;58.38;29.17;;;;;;;9.05;77.46;100619.63;5104448;28;20170;-68
2022/11/10 01:08:19;;;;;;;59.58;31.75;;;;;;;9.07;77.73;100630.91;5106476;28;20044;-68
2022/11/10 01:10:45;;;;;;;54.63;28.98;;;;;;;9.09;76.40;100615.75;5103799;28;20032;-68
2022/11/10 01:13:10;;;;;;;66.03;30.73;;;;;;;8.93;74.53;100617.06;5104546;28;20044;-68
2022/11/10 01:15:42;;;;;;;88.60;39.67;;;;;;;8.75;76.42;100621.28;5107751;28;20267;-68
2022/11/10 01:18:08;;;;;;;58.53;29.27;;;;;;;8.52;78.09;100619.72;5108873;28;20048;-67
2022/11/10 01:20:34;;;;;;;65.75;31.88;;;;;;;8.53;79.09;100619.59;5107295;28;20028;-67
2022/11/10 01:23:00;;;;;;;60.83;30.67;;;;;;;8.56;78.24;100611.41;5109945;28;20044;-68
2022/11/10 01:25:26;;;;;;;59.63;31.25;;;;;;;8.72;79.69;100618.06;5109384;28;20066;-68
2022/11/10 01:27:51;;;;;;;65.70;31.83;;;;;;;8.85;79.85;100613.41;5106659;28;20039;-68
2022/11/10 01:30:17;;;;;;;61.95;31.98;;;;;;;8.88;80.57;100626.34;5110784;28;20031;-68
2022/11/10 01:32:44;;;;;;;63.05;31.65;;;;;;;8.97;80.16;100622.94;5109238;28;20044;-68
2022/11/10 01:35:10;;;;;;;65.22;30.98;;;;;;;9.01;78.77;100608.50;5109004;28;20040;-68
2022/11/10 01:37:36;;;;;;;59.42;31.45;;;;;;;8.88;78.47;100582.28;5110604;28;20035;-68
2022/11/10 01:40:03;;;;;;;60.70;30.45;;;;;;;9.00;75.67;100611.28;5107427;28;20081;-67
2022/11/10 01:42:48;;;;;;;58.83;29.13;;;;;;;8.97;75.45;100609.72;5108687;28;20039;-67
2022/11/10 01:45:52;;;;;;;58.60;30.10;;;;;;;8.76;75.74;100615.03;5109292;28;20035;-68
2022/11/10 01:48:29;;;;;;;65.47;30.08;;;;;;;8.57;74.73;100620.16;5086109;28;20730;-68
2022/11/10 01:50:57;;;;;;;51.75;28.33;;;;;;;8.42;74.93;100617.00;5107383;28;20213;-68
2022/11/10 01:53:26;;;;;;;54.15;28.40;;;;;;;8.46;76.97;100613.16;5108449;28;20043;-68
2022/11/10 01:55:54;;;;;;;61.00;29.38;;;;;;;8.54;77.50;100615.16;5107963;28;20059;-68
2022/11/10 01:58:26;;;;;;;62.45;31.73;;;;;;;8.60;77.97;100612.84;5108513;28;20040;-68
2022/11/10 02:00:52;;;;;;;68.70;32.00;;;;;;;8.64;78.20;100611.59;5108977;28;20032;-67
2022/11/10 02:03:25;;;;;;;65.80;31.02;;;;;;;8.72;77.96;100610.13;5108285;28;20035;-68
2022/11/10 02:05:50;;;;;;;61.03;30.25;;;;;;;8.53;75.89;100602.91;5109181;28;20285;-68
2022/11/10 02:08:17;;;;;;;67.82;29.60;;;;;;;8.40;74.93;100618.94;5107145;28;20043;-68
2022/11/10 02:10:43;;;;;;;59.60;31.15;;;;;;;8.38;77.29;100609.47;5107795;28;20039;-68
2022/11/10 02:13:10;;;;;;;65.18;30.42;;;;;;;8.29;75.21;100600.44;5108533;28;20114;-68
2022/11/10 02:15:35;;;;;;;61.17;31.73;;;;;;;8.29;73.77;100618.91;5105490;28;20240;-68
2022/11/10 02:18:01;;;;;;;55.88;28.50;;;;;;;8.09;76.47;100617.06;5108024;28;20044;-68
2022/11/10 02:20:26;;;;;;;52.08;28.33;;;;;;;7.97;76.11;100621.53;5105993;28;20020;-67
2022/11/10 02:22:51;;;;;;;36.42;21.48;;;;;;;7.95;79.61;100612.91;5107803;28;20031;-67
2022/11/10 02:25:20;;;;;;;55.33;26.65;;;;;;;8.14;80.21;100617.53;5091612;28;20062;-68
2022/11/10 02:27:45;;;;;;;57.60;27.08;;;;;;;8.25;78.59;100620.13;5106396;28;20047;-68
2022/11/10 02:30:12;;;;;;;45.78;24.65;;;;;;;8.23;78.54;100617.63;5107354;28;20218;-68
2022/11/10 02:32:37;;;;;;;58.80;29.63;;;;;;;8.29;79.30;100626.84;5106961;28;20032;-68
2022/11/10 02:35:03;;;;;;;59.00;29.27;;;;;;;8.26;77.65;100629.72;5106218;28;20106;-68
2022/11/10 02:37:29;;;;;;;63.38;30.02;;;;;;;8.23;77.37;100616.78;5105699;28;20095;-68
2022/11/10 02:39:54;;;;;;;60.17;30.65;;;;;;;8.40;76.00;100636.56;5110239;28;20243;-68
2022/11/10 02:42:19;;;;;;;61.13;29.90;;;;;;;8.34;75.83;100634.44;5108997;28;20222;-67
2022/11/10 02:44:45;;;;;;;58.78;29.13;;;;;;;8.16;75.55;100640.19;5106202;28;20317;-67
2022/11/10 02:47:11;;;;;;;64.65;31.92;;;;;;;8.23;78.32;100638.72;5109417;28;20134;-68
2022/11/10 02:49:36;;;;;;;66.03;31.27;;;;;;;8.36;77.63;100635.97;5108769;28;20344;-68
2022/11/10 02:52:02;;;;;;;57.78;29.23;;;;;;;8.43;77.32;100642.44;5108060;28;20352;-68
2022/11/10 02:54:27;;;;;;;68.95;31.63;;;;;;;8.43;76.95;100652.16;5108484;28;20356;-68
2022/11/10 02:56:53;;;;;;;67.05;31.73;;;;;;;8.31;77.42;100632.81;5108005;28;20024;-68
2022/11/10 02:59:18;;;;;;;60.03;28.88;;;;;;;8.37;76.67;100645.56;5105676;28;20042;-68
2022/11/10 03:01:43;;;;;;;63.53;31.15;;;;;;;8.42;76.87;100653.13;5106494;28;20028;-68
2022/11/10 03:04:09;;;;;;;78.88;37.17;;;;;;;8.48;78.34;100655.25;5107114;28;20043;-67
2022/11/10 03:06:34;;;;;;;82.97;35.55;;;;;;;8.51;79.42;100649.72;5105867;28;20039;-67
2022/11/10 03:09:00;;;;;;;74.60;35.00;;;;;;;8.53;79.09;100647.78;5106289;28;20040;-68
2022/11/10 03:11:25;;;;;;;73.32;32.60;;;;;;;8.34;76.33;100645.81;5106233;28;20094;-68
2022/11/10 03:13:51;;;;;;;68.00;31.13;;;;;;;8.16;75.54;100649.91;5104902;28;20043;-68
2022/11/10 03:16:16;;;;;;;70.20;33.10;;;;;;;8.06;76.38;100649.81;5105341;28;20065;-68
2022/11/10 03:18:42;;;;;;;65.20;31.98;;;;;;;8.04;78.08;100648.25;5104291;28;20103;-67
2022/11/10 03:21:07;;;;;;;70.40;34.38;;;;;;;7.93;80.62;100649.13;5107863;28;20023;-67
2022/11/10 03:23:34;;;;;;;68.25;34.63;;;;;;;8.02;81.69;100643.94;5106708;28;20032;-68
2022/11/10 03:26:03;;;;;;;80.95;42.92;;;;;;;8.03;82.33;100639.50;5106004;28;20023;-68
2022/11/10 03:28:28;;;;;;;68.50;36.80;;;;;;;8.16;81.84;100644.63;5104958;28;20035;-68
2022/11/10 03:30:54;;;;;;;67.45;33.17;;;;;;;8.15;77.40;100642.94;5108433;28;20031;-68
2022/11/10 03:33:19;;;;;;;72.75;30.60;;;;;;;7.94;72.90;100638.44;5104620;28;20095;-68
2022/11/10 03:35:45;;;;;;;71.35;31.67;;;;;;;7.66;73.47;100647.72;5107254;28;20093;-68
2022/11/10 03:38:10;;;;;;;69.82;32.53;;;;;;;7.46;74.80;100642.34;5103825;28;20282;-68
2022/11/10 03:40:35;;;;;;;83.47;34.03;;;;;;;7.25;75.97;100643.03;5106872;28;20046;-67
2022/11/10 03:43:01;;;;;;;75.55;32.97;;;;;;;7.30;76.72;100646.19;5106451;28;20027;-68
2022/11/10 03:45:26;;;;;;;58.83;30.75;;;;;;;7.42;78.48;100651.44;5106089;28;20091;-68
2022/11/10 03:47:52;;;;;;;65.97;30.58;;;;;;;7.52;79.69;100653.25;5104082;28;20036;-68
2022/11/10 03:50:18;;;;;;;61.03;31.60;;;;;;;7.47;78.43;100646.66;5105272;28;20083;-68
2022/11/10 03:52:44;;;;;;;63.10;32.10;;;;;;;7.50;77.61;100649.06;5107758;28;20375;-68
2022/11/10 03:55:11;;;;;;;69.25;31.83;;;;;;;7.56;76.76;100645.94;5107266;28;20027;-68
2022/11/10 03:57:37;;;;;;;63.35;31.85;;;;;;;7.65;77.57;100648.69;5109084;28;20035;-68
2022/11/10 04:00:03;;;;;;;72.03;30.85;;;;;;;7.51;78.77;100653.38;5105189;28;20285;-68
2022/11/10 04:02:29;;;;;;;68.15;32.03;;;;;;;7.39;75.60;100654.31;5104623;28;20043;-67
2022/11/10 04:10:23;;;;;;;59.28;29.50;;;;;;;7.19;76.01;100648.78;5106238;28;19986;-68
2022/11/10 04:15:41;;;;;;;75.63;30.23;;;;;;;7.32;75.92;100656.59;5104780;28;20030;-68
2022/11/10 04:18:20;;;;;;;92.88;38.63;;;;;;;7.17;75.35;100661.22;5107336;28;20051;-68
2022/11/10 04:20:46;;;;;;;124.30;45.65;;;;;;;6.82;75.04;100656.00;5105947;28;20031;-68
2022/11/10 04:26:29;;;;;;;60.90;28.63;;;;;;;6.68;79.95;100662.31;5068982;28;20276;-67
2022/11/10 04:28:59;;;;;;;76.30;34.97;;;;;;;6.75;79.08;100667.94;5100527;28;20044;-68
2022/11/10 04:31:27;;;;;;;88.35;37.30;;;;;;;6.76;80.33;100660.91;5108237;28;20327;-68
2022/11/10 04:33:54;;;;;;;106.63;45.85;;;;;;;6.84;79.22;100653.25;5106886;28;20343;-68
2022/11/10 04:36:22;;;;;;;113.88;48.20;;;;;;;6.85;77.38;100665.47;5104630;28;20364;-68
2022/11/10 04:38:48;;;;;;;121.75;47.90;;;;;;;6.67;77.59;100658.00;5105622;28;20431;-68
2022/11/10 04:41:14;;;;;;;125.18;40.45;;;;;;;6.58;79.47;100669.22;5091355;28;20035;-68
2022/11/10 04:43:41;;;;;;;114.68;38.47;;;;;;;6.59;80.86;100663.00;5104048;28;20130;-68
2022/11/10 04:46:20;;;;;;;120.13;36.78;;;;;;;6.67;82.01;100665.06;5105182;28;20044;-67
2022/11/10 04:48:45;;;;;;;116.22;37.00;;;;;;;6.75;82.01;100670.59;5102763;28;20340;-67
2022/11/10 04:51:14;;;;;;;175.13;41.45;;;;;;;6.76;81.69;100672.25;5105501;28;20031;-68
2022/11/10 04:53:39;;;;;;;148.80;41.63;;;;;;;6.73;81.63;100665.44;5107505;28;20241;-68
2022/11/10 04:56:04;;;;;;;117.03;41.63;;;;;;;6.78;82.43;100680.88;5107241;28;20088;-68
2022/11/10 04:58:30;;;;;;;89.70;36.63;;;;;;;6.84;82.89;100680.44;5106355;28;20031;-68
2022/11/10 05:00:55;;;;;;;94.30;39.70;;;;;;;6.90;82.27;100682.59;5103960;28;20095;-68
2022/11/10 05:03:21;;;;;;;96.72;39.17;;;;;;;6.91;82.68;100678.16;5103595;28;20091;-68
2022/11/10 05:05:48;;;;;;;103.72;40.88;;;;;;;7.01;82.07;100677.34;5108870;28;20028;-68
2022/11/10 05:08:13;;;;;;;86.40;38.92;;;;;;;6.98;81.51;100682.84;5119394;28;20141;-67
2022/11/10 05:10:40;;;;;;;79.22;35.78;;;;;;;6.97;79.79;100682.97;5119315;28;20054;-67
2022/11/10 05:13:06;;;;;;;121.20;40.90;;;;;;;6.85;79.73;100678.63;5104265;28;20032;-68
2022/11/10 05:15:32;;;;;;;141.25;37.47;;;;;;;6.69;81.80;100678.94;5122854;28;20043;-68
2022/11/10 05:17:58;;;;;;;100.65;34.80;;;;;;;6.64;83.41;100681.91;5121491;28;20027;-68
2022/11/10 05:20:25;;;;;;;129.23;44.55;;;;;;;6.70;83.17;100684.09;5122522;28;20030;-68
2022/11/10 05:25:38;;;;;;;109.93;38.60;;;;;;;6.56;81.75;100696.59;5122285;28;20076;-68
2022/11/10 05:28:05;;;;;;;129.27;39.15;;;;;;;6.57;83.19;100695.63;5122246;28;20324;-67
2022/11/10 05:30:30;;;;;;;134.77;39.85;;;;;;;6.63;82.38;100697.81;5122693;28;20036;-67
2022/11/10 05:32:56;;;;;;;94.70;38.55;;;;;;;6.74;82.02;100700.50;5104158;28;20331;-68
2022/11/10 05:35:23;;;;;;;79.57;33.22;;;;;;;6.84;82.74;100698.84;5122328;28;20038;-68
2022/11/10 05:37:48;;;;;;;91.78;37.08;;;;;;;7.00;82.48;100709.06;5122434;28;20030;-68
2022/11/10 05:40:14;;;;;;;71.90;34.35;;;;;;;7.04;83.12;100707.88;5122134;28;20032;-68
2022/11/10 05:42:47;;;;;;;75.38;35.63;;;;;;;7.19;83.22;100712.00;5122455;28;20023;-68
2022/11/10 05:45:13;;;;;;;88.57;36.80;;;;;;;7.29;83.37;100714.78;5122599;28;20327;-68
2022/11/10 05:47:40;;;;;;;94.88;39.20;;;;;;;7.37;82.25;100709.78;5122610;28;20031;-66
2022/11/10 05:50:07;;;;;;;97.68;36.95;;;;;;;7.42;80.31;100712.91;5122357;28;20376;-66
2022/11/10 05:52:33;;;;;;;85.20;35.28;;;;;;;7.35;80.86;100728.34;5122542;28;20082;-68
2022/11/10 05:54:59;;;;;;;87.90;36.33;;;;;;;7.25;81.25;100731.75;5121886;28;20023;-68
2022/11/10 05:57:24;;;;;;;76.10;31.23;;;;;;;7.35;81.23;100736.25;5120851;28;20329;-68
2022/11/10 05:59:50;;;;;;;84.80;34.78;;;;;;;7.33;80.34;100727.63;5122580;28;20048;-68
2022/11/10 06:02:15;;;;;;;73.32;34.08;;;;;;;7.28;80.81;100731.53;5125715;28;20060;-68
2022/11/10 06:04:41;;;;;;;81.25;34.10;;;;;;;7.30;81.69;100745.44;5126055;28;20015;-68
2022/11/10 06:07:07;;;;;;;82.70;34.53;;;;;;;7.31;82.23;100747.97;5125834;28;20039;-68
2022/11/10 06:09:33;;;;;;;87.70;39.53;;;;;;;7.40;82.05;100737.69;5125692;28;20011;-66
2022/11/10 06:11:59;;;;;;;108.30;44.10;;;;;;;7.55;81.80;100744.41;5125715;28;20054;-67
2022/11/10 06:14:24;;;;;;;113.85;42.58;;;;;;;7.64;81.14;100749.81;5125770;28;20292;-67
2022/11/10 06:16:50;;;;;;;114.68;41.00;;;;;;;7.74;81.20;100755.19;5126160;28;20096;-68
2022/11/10 06:19:15;;;;;;;96.65;35.65;;;;;;;7.79;81.18;100746.94;5107611;28;20042;-68
2022/11/10 06:21:41;;;;;;;66.03;28.50;;;;;;;7.87;81.61;100760.34;5125999;28;20090;-68
2022/11/10 06:24:06;;;;;;;67.20;29.50;;;;;;;7.88;81.78;100754.13;5126135;28;20254;-68
2022/11/10 06:26:32;;;;;;;72.47;31.40;;;;;;;7.89;82.09;100756.66;5125289;28;20376;-68
2022/11/10 06:28:57;;;;;;;64.68;32.42;;;;;;;7.98;81.69;100761.19;5125909;28;20035;-68
2022/11/10 06:31:23;;;;;;;66.72;33.47;;;;;;;8.02;82.38;100759.16;5125752;28;20050;-67
2022/11/10 06:33:48;;;;;;;58.05;28.83;;;;;;;8.09;82.16;100754.22;5125482;28;20313;-67
2022/11/10 06:36:14;;;;;;;55.13;29.88;;;;;;;8.24;81.67;100756.50;5125385;28;20067;-67
2022/11/10 06:38:40;;;;;;;56.08;31.17;;;;;;;8.29;82.31;100750.84;5125235;28;20217;-68
2022/11/10 06:41:05;;;;;;;68.38;35.22;;;;;;;8.35;82.27;100757.50;5125404;28;20027;-68
2022/11/10 06:43:31;;;;;;;73.05;37.00;;;;;;;8.40;82.18;100761.44;5125271;28;20047;-68
2022/11/10 06:45:56;;;;;;;86.10;39.67;;;;;;;8.55;81.97;100762.00;5125742;28;20043;-68
2022/11/10 06:48:22;;;;;;;70.13;35.60;;;;;;;8.60;82.10;100763.31;5124948;28;20038;-68
2022/11/10 06:50:47;;;;;;;65.93;34.85;;;;;;;8.69;81.43;100769.66;5105979;28;20277;-67
2022/11/10 06:53:12;;;;;;;71.75;36.17;;;;;;;8.85;81.26;100770.06;5125124;28;20028;-67
2022/11/10 06:55:38;;;;;;;94.65;42.15;;;;;;;8.68;81.66;100770.59;5124988;28;20118;-67
2022/11/10 06:58:04;;;;;;;91.65;44.50;;;;;;;8.59;82.60;100761.63;5124693;28;20035;-67
2022/11/10 07:00:29;;;;;;;114.95;47.33;;;;;;;8.52;82.96;100776.28;5125128;28;20063;-68
2022/11/10 07:03:03;;;;;;;126.35;49.22;;;;;;;8.35;84.31;100776.81;5124785;28;20090;-68
2022/11/10 07:05:31;;;;;;;119.45;48.30;;;;;;;8.34;84.76;100767.22;5124842;28;20229;-68
2022/11/10 07:08:01;;;;;;;108.68;46.72;;;;;;;8.57;84.20;100768.84;5124674;28;20043;-68
2022/11/10 07:10:27;;;;;;;103.53;45.83;;;;;;;8.52;84.04;100757.81;5124684;28;20055;-68
2022/11/10 07:12:59;;;;;;;103.15;43.55;;;;;;;8.80;83.39;100768.78;5124142;28;20032;-66
2022/11/10 07:15:25;;;;;;;133.40;55.70;;;;;;;8.92;83.04;100770.41;5124970;28;20228;-67
2022/11/10 07:17:51;;;;;;;121.10;54.13;;;;;;;8.95;83.16;100775.44;5124526;28;20051;-67
2022/11/10 07:20:16;;;;;;;128.18;51.97;;;;;;;8.96;83.18;100771.81;5123109;28;20058;-68
2022/11/10 07:22:42;;;;;;;146.60;61.53;;;;;;;9.05;83.49;100776.34;5124633;28;20036;-68
2022/11/10 07:25:07;;;;;;;158.10;66.32;;;;;;;9.25;83.57;100777.31;5124142;28;20047;-68
2022/11/10 07:27:33;;;;;;;171.85;69.95;;;;;;;9.40;82.35;100773.44;5124338;28;20043;-68
2022/11/10 07:29:58;;;;;;;200.65;84.43;;;;;;;9.48;82.67;100776.25;5124293;28;20090;-67
2022/11/10 07:32:24;;;;;;;177.32;77.80;;;;;;;9.59;82.71;100775.34;5124265;28;20035;-67
2022/11/10 07:34:49;;;;;;;140.57;62.13;;;;;;;9.56;83.41;100773.81;5124031;28;20095;-67
2022/11/10 07:37:14;;;;;;;136.32;59.25;;;;;;;9.62;84.12;100776.91;5124073;28;20236;-68
2022/11/10 07:39:40;;;;;;;152.85;70.03;;;;;;;9.84;83.28;100771.44;5124138;28;20035;-68
2022/11/10 07:42:05;;;;;;;146.45;68.43;;;;;;;10.10;82.36;100771.81;5124213;28;20132;-68
2022/11/10 07:44:31;;;;;;;136.32;64.47;;;;;;;10.29;81.69;100771.91;5124260;28;20349;-68
2022/11/10 07:46:56;;;;;;;122.95;57.08;;;;;;;10.31;81.86;100775.25;5105845;28;20035;-68
2022/11/10 07:49:22;;;;;;;139.30;58.03;;;;;;;10.32;82.43;100771.66;5124378;28;20035;-67
2022/11/10 07:51:47;;;;;;;131.50;55.42;;;;;;;10.48;82.56;100777.28;5124233;28;20056;-67
2022/11/10 07:54:13;;;;;;;108.15;47.70;;;;;;;10.39;83.38;100771.94;5123989;28;20032;-68
2022/11/10 07:56:38;;;;;;;97.25;46.40;;;;;;;10.59;82.37;100764.91;5122940;28;20045;-68
2022/11/10 07:59:03;;;;;;;92.93;44.22;;;;;;;10.67;82.33;100763.25;5123922;28;20090;-68
2022/11/10 08:01:29;;;;;;;92.32;42.92;;;;;;;10.57;82.65;100769.50;5124127;28;20267;-68
2022/11/10 08:03:54;;;;;;;86.00;42.40;;;;;;;10.62;82.59;100778.72;5123380;28;20031;-68
2022/11/10 08:06:20;;;;;;;75.65;38.30;;;;;;;10.62;82.79;100767.28;5123210;28;20043;-67
2022/11/10 08:08:46;;;;;;;83.53;42.38;;;;;;;10.62;83.48;100777.88;5123894;28;20131;-67
2022/11/10 08:11:12;;;;;;;77.10;40.05;;;;;;;10.77;82.32;100773.84;5123642;28;20049;-68
2022/11/10 08:13:38;;;;;;;72.22;36.10;;;;;;;10.82;81.97;100772.44;5123380;28;20059;-68
2022/11/10 08:16:04;;;;;;;73.05;38.22;;;;;;;10.99;81.61;100773.56;5123553;28;20038;-68
2022/11/10 08:18:30;;;;;;;72.55;38.20;;;;;;;10.71;82.63;100746.09;5123167;28;20217;-68
2022/11/10 08:20:55;;;;;;;69.60;36.30;;;;;;;11.25;81.40;100783.59;5105101;28;20106;-68
2022/11/10 08:23:21;;;;;;;73.22;36.92;;;;;;;10.77;83.45;100779.97;5122924;28;20305;-68
2022/11/10 08:25:46;;;;;;;75.82;39.28;;;;;;;11.00;82.90;100771.75;5122849;28;20047;-67
2022/11/10 08:28:16;;;;;;;72.53;36.40;;;;;;;11.44;81.50;100786.22;5123054;28;20043;-67
2022/11/10 08:30:44;;;;;;;69.97;37.75;;;;;;;11.59;80.99;100781.34;5123368;28;20039;-68
2022/11/10 08:33:12;;;;;;;81.65;40.65;;;;;;;11.54;81.12;100783.59;5123413;28;20023;-68
2022/11/10 08:35:42;;;;;;;79.15;40.78;;;;;;;11.51;81.55;100779.41;5123155;28;20028;-68
2022/11/10 08:38:13;;;;;;;88.25;43.22;;;;;;;11.79;80.65;100786.50;5122940;28;20019;-68
2022/11/10 08:40:39;;;;;;;83.95;42.40;;;;;;;11.85;81.83;100777.09;5105084;28;20024;-68
2022/11/10 08:43:09;;;;;;;85.65;43.58;;;;;;;11.97;81.95;100778.59;5123076;28;20113;-67
2022/11/10 08:45:36;;;;;;;86.45;41.22;;;;;;;12.05;81.40;100773.41;5123240;28;20032;-67
2022/11/10 08:48:21;;;;;;;85.95;44.03;;;;;;;12.22;80.69;100766.47;5122851;28;20082;-68
2022/11/10 08:50:48;;;;;;;91.78;46.40;;;;;;;12.11;81.30;100772.81;5122738;28;20028;-68
2022/11/10 08:53:22;;;;;;;87.00;44.13;;;;;;;12.13;80.89;100752.25;5104900;28;20019;-68
2022/11/10 08:55:48;;;;;;;88.13;46.35;;;;;;;12.38;79.85;100768.47;5122731;28;20050;-68
2022/11/10 08:58:20;;;;;;;87.03;44.25;;;;;;;12.41;79.94;100760.22;5122686;28;20359;-68
2022/11/10 09:00:45;;;;;;;92.85;45.83;;;;;;;12.39;80.76;100756.88;5123069;28;20356;-68
2022/11/10 09:03:15;;;;;;;81.47;46.55;;;;;;;12.65;78.82;100757.00;5122801;28;20090;-67
2022/11/10 09:05:42;;;;;;;94.47;47.42;;;;;;;12.60;79.67;100761.94;5122982;28;20026;-67
2022/11/10 09:08:08;;;;;;;97.97;46.13;;;;;;;12.58;79.51;100751.47;5122456;28;20202;-68
2022/11/10 09:10:36;;;;;;;84.47;45.78;;;;;;;12.65;80.15;100749.03;5122812;28;20212;-68
2022/11/10 09:13:03;;;;;;;94.72;47.33;;;;;;;12.90;78.83;100756.25;5122346;28;20024;-68
2022/11/10 09:15:30;;;;;;;91.72;49.70;;;;;;;12.92;79.63;100756.94;5123086;28;20226;-68
2022/11/10 09:17:59;;;;;;;91.38;47.65;;;;;;;12.93;79.47;100755.13;5122531;28;20032;-68
2022/11/10 09:20:27;;;;;;;93.78;48.45;;;;;;;13.05;78.78;100756.56;5122597;28;20036;-67
2022/11/10 09:22:52;;;;;;;94.18;49.95;;;;;;;12.98;79.65;100751.00;5104491;28;20024;-67
2022/11/10 09:25:18;;;;;;;102.47;52.05;;;;;;;13.13;79.53;100753.13;5122542;28;20104;-68
2022/11/10 09:27:43;;;;;;;107.10;55.47;;;;;;;13.25;78.94;100750.09;5122221;28;20233;-68
2022/11/10 09:30:09;;;;;;;110.05;54.97;;;;;;;13.28;78.79;100752.44;5122591;28;20027;-68
2022/11/10 09:32:35;;;;;;;112.35;56.65;;;;;;;13.01;80.40;100736.56;5122366;28;20027;-68
2022/11/10 09:35:01;;;;;;;117.15;57.75;;;;;;;13.01;81.07;100733.91;5124460;28;20072;-68
2022/11/10 09:37:26;;;;;;;114.32;56.60;;;;;;;13.32;79.28;100751.16;5126434;28;20055;-68
2022/11/10 09:39:52;;;;;;;112.43;58.00;;;;;;;13.59;78.76;100736.06;5126748;28;20250;-67
2022/11/10 09:42:30;;;;;;;111.65;54.28;;;;;;;13.43;79.58;100737.59;5126125;28;20218;-67
2022/11/10 09:45:13;;;;;;;101.10;49.42;;;;;;;13.50;79.89;100728.97;5126630;28;20055;-68
2022/11/10 09:47:49;;;;;;;103.82;50.97;;;;;;;13.62;78.91;100720.59;5114145;28;20042;-68
2022/11/10 09:50:31;;;;;;;87.63;44.88;;;;;;;13.77;78.47;100726.16;5126163;28;20035;-68
2022/11/10 09:52:59;;;;;;;84.15;45.50;;;;;;;13.78;78.72;100719.03;5126484;28;20095;-68
2022/11/10 09:55:36;;;;;;;97.43;46.28;;;;;;;13.58;79.77;100729.06;5124759;28;20031;-68
2022/11/10 09:58:02;;;;;;;78.60;40.00;;;;;;;13.74;80.12;100715.84;5107573;28;20102;-68
2022/11/10 10:00:32;;;;;;;79.65;42.45;;;;;;;13.96;78.83;100728.59;5126435;28;20360;-67
2022/11/10 10:03:03;;;;;;;81.05;42.55;;;;;;;13.84;79.32;100721.88;5125902;28;20084;-67
2022/11/10 10:05:50;;;;;;;85.18;43.67;;;;;;;14.00;79.43;100727.28;5126075;28;20099;-68
2022/11/10 10:08:40;;;;;;;82.05;41.83;;;;;;;14.02;79.39;100719.97;5125761;28;20225;-69
2022/11/10 10:11:18;;;;;;;76.40;40.33;;;;;;;14.11;78.41;100717.31;5126167;28;20031;-68
2022/11/10 10:14:12;;;;;;;71.43;35.80;;;;;;;14.19;78.72;100709.38;5107843;28;20051;-69
2022/11/10 10:16:58;;;;;;;65.40;36.10;;;;;;;14.23;78.29;100703.53;5126142;28;20317;-69
2022/11/10 10:19:43;;;;;;;71.80;37.55;;;;;;;14.28;77.89;100705.72;5125709;28;20309;-68
2022/11/10 10:22:14;;;;;;;70.75;36.60;;;;;;;14.43;77.68;100696.13;5087416;28;20031;-68
2022/11/10 10:24:40;;;;;;;62.72;36.67;;;;;;;14.39;77.79;100692.94;5120757;28;20035;-67
2022/11/10 10:27:11;;;;;;;69.13;35.72;;;;;;;14.57;76.44;100692.84;5125525;28;20040;-67
2022/11/10 10:29:43;;;;;;;70.30;36.00;;;;;;;14.69;76.60;100696.03;5125830;28;20035;-68
2022/11/10 10:32:18;;;;;;;63.15;35.63;;;;;;;14.83;76.08;100691.88;5125896;28;20066;-68
2022/11/10 10:34:45;;;;;;;69.22;37.22;;;;;;;14.87;75.07;100686.03;5125802;28;20035;-68
2022/11/10 10:37:20;;;;;;;71.65;40.38;;;;;;;14.92;74.42;100682.88;5125574;28;20104;-68
2022/11/10 10:39:49;;;;;;;77.13;38.67;;;;;;;14.80;74.99;100673.53;5125876;28;20070;-69
2022/11/10 10:42:35;;;;;;;70.47;38.97;;;;;;;14.87;74.96;100679.88;5124915;28;20032;-69
2022/11/10 10:45:23;;;;;;;70.15;37.83;;;;;;;15.11;73.92;100673.69;5125499;28;20024;-69
2022/11/10 10:47:53;;;;;;;67.10;35.78;;;;;;;15.13;73.66;100671.69;5123882;28;20370;-68
2022/11/10 10:50:31;;;;;;;68.25;36.10;;;;;;;14.89;76.19;100669.88;5124996;28;20066;-67
2022/11/10 10:53:06;;;;;;;67.93;35.25;;;;;;;14.80;75.95;100666.38;5125101;28;20309;-67
2022/11/10 10:55:32;;;;;;;66.68;34.92;;;;;;;14.78;76.93;100670.22;5124586;28;20292;-68
2022/11/10 10:58:04;;;;;;;63.70;35.13;;;;;;;14.85;75.46;100666.72;5124672;28;20366;-69
2022/11/10 11:00:30;;;;;;;71.88;36.63;;;;;;;14.94;75.44;100668.38;5125149;28;20027;-69
2022/11/10 11:03:23;;;;;;;67.75;38.40;;;;;;;14.87;76.33;100659.38;5124062;28;20144;-69
2022/11/10 11:06:14;;;;;;;66.57;37.78;;;;;;;15.04;76.12;100659.34;5111208;28;20023;-69
2022/11/10 11:08:58;;;;;;;71.43;38.15;;;;;;;15.21;75.25;100656.50;5124577;28;20031;-69
2022/11/10 11:11:33;;;;;;;67.72;37.60;;;;;;;15.10;74.25;100646.19;5124774;28;20237;-69
2022/11/10 11:14:26;;;;;;;68.18;36.40;;;;;;;15.02;74.89;100654.19;5124836;28;20084;-68
2022/11/10 11:17:01;;;;;;;69.53;39.70;;;;;;;15.07;74.69;100651.84;5115573;28;20049;-67
2022/11/10 11:19:31;;;;;;;72.50;39.13;;;;;;;14.90;76.68;100644.88;5124489;28;20058;-68
2022/11/10 11:22:02;;;;;;;74.25;38.53;;;;;;;15.05;76.13;100650.34;5125137;28;20305;-69
2022/11/10 11:25:09;;;;;;;88.55;39.65;;;;;;;15.02;76.19;100652.34;5122722;28;20031;-69
2022/11/10 11:28:03;;;;;;;75.07;39.38;;;;;;;15.22;74.98;100644.00;5088959;28;20166;-69
2022/11/10 11:31:03;;;;;;;65.28;36.10;;;;;;;15.42;73.22;100644.44;5106299;28;20254;-69
2022/11/10 11:33:50;;;;;;;71.00;37.28;;;;;;;15.37;73.59;100639.63;5109465;28;20043;-69
2022/11/10 11:36:48;;;;;;;71.43;37.85;;;;;;;15.31;73.57;100640.28;5111377;28;20042;-69